Time;durP1;ratioP1;P1;durP2;ratioP2;P2;SDS_P1;SDS_P2;PMS_P1;PMS_P2;Temp;Humidity;BMP_temperature;BMP_pressure;BME280_temperature;BME280_humidity;BME280_pressure;Samples;Min_cycle;Max_cycle;Signal;HPM_P1;HPM_P2
2022/12/28 00:00:17;;;;;;;1.73;0.47;;;;;;;7.57;100.00;99375.31;4988595;28;20054;-79
2022/12/28 00:02:45;;;;;;;3.33;0.80;;;;;;;7.56;100.00;99368.47;4987558;28;20050;-79
2022/12/28 00:05:14;;;;;;;5.40;0.60;;;;;;;7.53;100.00;99352.94;4988735;28;20050;-80
2022/12/28 00:07:43;;;;;;;4.93;0.75;;;;;;;7.54;100.00;99364.97;4988464;28;20559;-81
2022/12/28 00:10:12;;;;;;;3.08;0.70;;;;;;;7.58;100.00;99353.88;4988129;28;20444;-82
2022/12/28 00:12:40;;;;;;;4.03;0.50;;;;;;;7.55;100.00;99353.84;4983866;28;20051;-80
2022/12/28 00:15:11;;;;;;;2.70;0.85;;;;;;;7.59;100.00;99350.47;4996566;28;20435;-85
2022/12/28 00:17:40;;;;;;;3.20;0.93;;;;;;;7.58;100.00;99361.59;4983444;28;20050;-84
2022/12/28 00:20:10;;;;;;;2.70;0.60;;;;;;;7.62;100.00;99368.56;4989873;28;20453;-86
2022/12/28 00:22:39;;;;;;;2.75;0.70;;;;;;;7.64;100.00;99381.47;4989690;28;20049;-82
2022/12/28 00:25:08;;;;;;;7.05;1.13;;;;;;;7.64;100.00;99384.91;4992872;28;20141;-84
2022/12/28 00:27:37;;;;;;;2.55;1.20;;;;;;;7.67;100.00;99392.69;4991905;28;20054;-81
2022/12/28 00:30:11;;;;;;;2.50;0.65;;;;;;;7.71;100.00;99409.91;4986946;28;20093;-78
2022/12/28 00:32:40;;;;;;;4.47;1.08;;;;;;;7.72;100.00;99411.66;4991294;28;20043;-79
2022/12/28 00:35:09;;;;;;;4.50;0.68;;;;;;;7.78;100.00;99428.06;4990264;28;20058;-80
2022/12/28 00:37:38;;;;;;;11.48;1.98;;;;;;;7.76;100.00;99446.94;4991012;28;20046;-82
2022/12/28 00:40:07;;;;;;;4.93;0.88;;;;;;;7.76;100.00;99458.94;4996965;28;20464;-77
2022/12/28 00:42:36;;;;;;;3.67;0.50;;;;;;;7.76;100.00;99470.13;4999090;28;20148;-78
2022/12/28 00:45:06;;;;;;;3.80;0.82;;;;;;;7.78;100.00;99472.69;4990518;28;20085;-77
2022/12/28 00:47:37;;;;;;;2.60;0.63;;;;;;;7.76;100.00;99470.13;5011808;28;20061;-79
2022/12/28 00:50:06;;;;;;;5.63;0.95;;;;;;;7.73;100.00;99488.06;5010124;28;20393;-77
2022/12/28 00:52:35;;;;;;;0.98;0.70;;;;;;;7.74;100.00;99492.41;5009665;28;20060;-77
2022/12/28 00:55:03;;;;;;;3.47;0.52;;;;;;;7.76;100.00;99495.88;5012308;28;20529;-77
2022/12/28 00:57:32;;;;;;;3.40;1.00;;;;;;;7.78;100.00;99519.06;5012388;28;20050;-73
2022/12/28 01:00:01;;;;;;;7.78;0.63;;;;;;;7.80;100.00;99529.41;5010132;28;20054;-75
2022/12/28 01:02:29;;;;;;;1.13;0.52;;;;;;;7.79;100.00;99531.13;5010302;28;20050;-74
2022/12/28 01:05:00;;;;;;;5.03;1.33;;;;;;;7.76;100.00;99541.31;5008272;28;20045;-76
2022/12/28 01:07:29;;;;;;;5.03;0.65;;;;;;;7.68;100.00;99548.91;5010436;28;20053;-74
2022/12/28 01:09:58;;;;;;;2.03;0.40;;;;;;;7.63;100.00;99544.47;5003409;28;20537;-76
2022/12/28 01:12:27;;;;;;;3.03;0.50;;;;;;;7.54;100.00;99551.16;4998686;28;20705;-74
2022/12/28 01:14:56;;;;;;;1.95;0.43;;;;;;;7.49;100.00;99502.97;5007338;28;20391;-74
2022/12/28 01:17:25;;;;;;;3.83;0.45;;;;;;;7.45;100.00;99529.50;5004082;28;20050;-76
2022/12/28 01:19:54;;;;;;;1.90;0.52;;;;;;;7.41;100.00;99499.38;5002641;28;20238;-74
2022/12/28 01:22:24;;;;;;;2.28;1.08;;;;;;;7.29;100.00;99493.13;5000687;28;20054;-73
2022/12/28 01:24:53;;;;;;;1.33;0.47;;;;;;;7.26;100.00;99472.50;5011412;28;20245;-74
2022/12/28 01:27:22;;;;;;;3.75;0.65;;;;;;;7.27;100.00;99465.63;5008989;28;20049;-75
2022/12/28 01:29:51;;;;;;;3.30;0.40;;;;;;;7.29;100.00;99469.13;5011883;28;20077;-75
2022/12/28 01:32:19;;;;;;;1.80;0.85;;;;;;;7.31;100.00;99475.16;5007953;28;20066;-75
2022/12/28 01:34:48;;;;;;;0.55;0.25;;;;;;;7.34;100.00;99483.81;5004082;28;20054;-75
2022/12/28 01:37:16;;;;;;;3.22;0.30;;;;;;;7.38;100.00;99491.63;5004261;28;20049;-74
2022/12/28 01:39:47;;;;;;;2.40;0.65;;;;;;;7.40;100.00;99503.69;5011220;28;20052;-76
2022/12/28 01:42:18;;;;;;;2.05;0.30;;;;;;;7.43;100.00;99519.16;5000584;28;20069;-73
2022/12/28 01:44:48;;;;;;;1.48;0.50;;;;;;;7.46;100.00;99516.66;5004846;28;20656;-74
2022/12/28 01:47:20;;;;;;;3.30;0.57;;;;;;;7.49;100.00;99518.44;5008591;28;20500;-74
2022/12/28 01:50:04;;;;;;;2.33;0.73;;;;;;;7.43;100.00;99526.03;4998643;28;20046;-75
2022/12/28 01:52:38;;;;;;;2.05;0.77;;;;;;;7.42;100.00;99532.00;5011330;28;20688;-74
2022/12/28 01:55:12;;;;;;;1.67;0.65;;;;;;;7.45;100.00;99542.38;5006866;28;20045;-74
2022/12/28 01:57:45;;;;;;;4.60;0.35;;;;;;;7.45;100.00;99544.94;5004738;28;20689;-73
2022/12/28 02:00:14;;;;;;;;;;;;;;;7.43;100.00;99552.63;5018384;28;20427;-73
2022/12/28 02:02:47;;;;;;;2.83;0.47;;;;;;;7.37;100.00;99551.63;5012547;28;19925;-73
2022/12/28 02:05:17;;;;;;;1.98;0.80;;;;;;;7.31;100.00;99532.63;5008912;28;20492;-75
2022/12/28 02:07:53;;;;;;;5.00;0.82;;;;;;;7.31;100.00;99532.63;5006145;28;20129;-74
2022/12/28 02:10:25;;;;;;;4.28;0.63;;;;;;;7.34;100.00;99531.84;5007630;28;20045;-72
2022/12/28 02:12:56;;;;;;;3.45;0.82;;;;;;;7.36;100.00;99526.72;5001103;28;20069;-75
2022/12/28 02:15:25;;;;;;;3.63;0.40;;;;;;;7.37;100.00;99525.88;5002626;28;20495;-77
2022/12/28 02:17:54;;;;;;;7.32;0.73;;;;;;;7.39;100.00;99529.38;5003207;28;20092;-75
2022/12/28 02:20:28;;;;;;;2.88;0.70;;;;;;;7.39;100.00;99539.66;5008349;28;20544;-77
2022/12/28 02:23:34;;;;;;;5.57;0.73;;;;;;;7.38;100.00;99540.50;5007126;28;20046;-76
2022/12/28 02:26:32;;;;;;;1.85;0.90;;;;;;;7.38;100.00;99553.38;5008357;28;20058;-75
2022/12/28 02:29:17;;;;;;;2.38;0.60;;;;;;;7.42;100.00;99560.31;5004030;28;20054;-75
2022/12/28 02:31:55;;;;;;;2.90;0.65;;;;;;;7.44;100.00;99558.63;5007161;28;20053;-77
2022/12/28 02:34:28;;;;;;;3.40;0.77;;;;;;;7.46;100.00;99573.28;5008300;28;20061;-76
2022/12/28 02:37:02;;;;;;;5.22;0.82;;;;;;;7.52;100.00;99577.72;5007268;28;20897;-77
2022/12/28 02:39:38;;;;;;;3.85;0.50;;;;;;;7.52;100.00;99586.28;5007197;28;20057;-77
2022/12/28 02:42:09;;;;;;;3.72;0.70;;;;;;;7.51;100.00;99587.16;5007907;28;20727;-76
2022/12/28 02:50:16;;;;;;;3.03;0.65;;;;;;;7.53;100.00;99605.19;5000521;28;20060;-76
2022/12/28 02:53:13;;;;;;;0.73;0.30;;;;;;;7.48;100.00;99593.91;5008145;28;20105;-78
2022/12/28 02:56:06;;;;;;;2.80;0.50;;;;;;;7.51;100.00;99604.28;4994012;28;20580;-78
2022/12/28 02:59:12;;;;;;;2.90;2.08;;;;;;;7.45;100.00;99588.72;5011976;28;20052;-75
2022/12/28 03:01:58;;;;;;;5.85;0.77;;;;;;;7.54;100.00;99604.38;5005475;28;20510;-77
2022/12/28 03:04:35;;;;;;;3.90;0.90;;;;;;;7.55;100.00;99599.22;5010788;28;20471;-75
2022/12/28 03:10:06;;;;;;;5.03;1.10;;;;;;;7.65;100.00;99594.28;5006802;28;20187;-75
2022/12/28 03:12:41;;;;;;;3.50;0.90;;;;;;;7.69;100.00;99591.81;5007582;28;20057;-77
2022/12/28 03:15:13;;;;;;;8.00;1.00;;;;;;;7.72;100.00;99581.59;5001723;28;20428;-76
2022/12/28 03:31:49;;;;;;;3.60;1.42;;;;;;;7.67;100.00;99619.25;4998570;28;20503;-76
2022/12/28 03:34:20;;;;;;;4.07;0.70;;;;;;;7.68;100.00;99630.41;5003063;28;20060;-77
2022/12/28 03:36:57;;;;;;;4.80;0.50;;;;;;;7.63;100.00;99625.16;5003706;28;20166;-74
2022/12/28 03:39:35;;;;;;;1.35;0.40;;;;;;;7.61;100.00;99624.25;5004955;28;20420;-74
2022/12/28 03:45:06;;;;;;;3.35;0.50;;;;;;;7.59;100.00;99643.94;5009674;28;20064;-74
2022/12/28 03:47:36;;;;;;;2.95;0.47;;;;;;;7.58;100.00;99643.91;5013901;28;20057;-74
2022/12/28 03:50:08;;;;;;;3.80;0.70;;;;;;;7.59;100.00;99650.81;5018878;28;20510;-74
2022/12/28 03:52:36;;;;;;;3.08;0.75;;;;;;;7.58;100.00;99649.91;5013255;28;20478;-75
2022/12/28 03:55:06;;;;;;;2.90;0.45;;;;;;;7.57;100.00;99649.91;5004121;28;20042;-76
2022/12/28 03:57:35;;;;;;;1.80;0.50;;;;;;;7.55;100.00;99660.16;5005900;28;20563;-75
2022/12/28 04:00:04;;;;;;;3.08;0.52;;;;;;;7.53;100.00;99666.97;5006851;28;20519;-77
2022/12/28 04:02:33;;;;;;;1.98;0.50;;;;;;;7.44;100.00;99666.72;5005944;28;20054;-76
2022/12/28 04:05:02;;;;;;;1.75;0.45;;;;;;;7.49;100.00;99684.03;4998092;28;20463;-77
2022/12/28 04:07:32;;;;;;;3.33;0.50;;;;;;;7.49;100.00;99685.72;5014926;28;20057;-75
2022/12/28 04:10:01;;;;;;;1.23;0.73;;;;;;;7.49;100.00;99696.03;5005129;28;20060;-79
2022/12/28 04:12:30;;;;;;;1.02;0.47;;;;;;;7.43;100.00;99675.31;5009575;28;20069;-80
2022/12/28 04:14:59;;;;;;;3.15;0.45;;;;;;;7.44;100.00;99682.19;5008778;28;20054;-76
2022/12/28 04:17:29;;;;;;;4.30;0.57;;;;;;;7.46;100.00;99683.09;5008696;28;20052;-74
2022/12/28 04:19:58;;;;;;;1.85;0.10;;;;;;;7.44;100.00;99713.91;5010743;28;20496;-75
2022/12/28 04:22:26;;;;;;;1.20;0.40;;;;;;;7.41;100.00;99720.72;5010761;28;20561;-75
2022/12/28 04:24:56;;;;;;;1.90;0.50;;;;;;;7.35;100.00;99731.69;5006314;28;20060;-76
2022/12/28 04:27:25;;;;;;;0.98;0.40;;;;;;;7.28;100.00;99735.84;5010775;28;20419;-74
2022/12/28 04:29:54;;;;;;;4.25;0.63;;;;;;;7.29;100.00;99731.56;5011078;28;20056;-75
2022/12/28 04:32:22;;;;;;;0.52;0.50;;;;;;;7.25;100.00;99738.31;5005095;28;20053;-75
2022/12/28 04:34:51;;;;;;;1.65;0.43;;;;;;;7.27;100.00;99736.66;5003288;28;20062;-75
2022/12/28 04:37:19;;;;;;;2.53;0.43;;;;;;;7.30;100.00;99747.03;5011683;28;20080;-76
2022/12/28 04:39:48;;;;;;;1.02;0.47;;;;;;;7.32;100.00;99757.38;5013371;28;20048;-75
2022/12/28 04:42:18;;;;;;;1.30;0.40;;;;;;;7.28;100.00;99764.16;5012158;28;20821;-74
2022/12/28 04:44:47;;;;;;;2.05;0.57;;;;;;;7.26;100.00;99768.38;5007561;28;20539;-75
2022/12/28 04:47:16;;;;;;;2.30;0.40;;;;;;;7.24;100.00;99767.47;5006327;28;20046;-75
2022/12/28 04:49:44;;;;;;;4.93;0.68;;;;;;;7.24;100.00;99767.47;5007802;28;20072;-77
2022/12/28 04:52:13;;;;;;;3.20;0.60;;;;;;;7.25;100.00;99764.03;5007085;28;20049;-78
2022/12/28 04:54:41;;;;;;;3.42;0.82;;;;;;;7.27;100.00;99767.53;5019385;28;20523;-75
2022/12/28 04:57:10;;;;;;;3.63;0.75;;;;;;;7.31;100.00;99768.50;5011297;28;20600;-75
2022/12/28 04:59:41;;;;;;;3.40;0.52;;;;;;;7.34;100.00;99784.00;5011578;28;20056;-78
2022/12/28 05:02:09;;;;;;;4.43;0.77;;;;;;;7.34;100.00;99792.59;5015471;28;20606;-77
2022/12/28 05:04:38;;;;;;;6.68;1.00;;;;;;;7.38;100.00;99800.44;5012739;28;20061;-77
2022/12/28 05:07:13;;;;;;;9.15;0.88;;;;;;;7.41;100.00;99800.50;5002741;28;20128;-77
2022/12/28 05:09:42;;;;;;;7.10;0.85;;;;;;;7.42;100.00;99803.13;5007543;28;20086;-75
2022/12/28 05:12:10;;;;;;;6.72;0.88;;;;;;;7.41;100.00;99803.94;5018028;28;20080;-77
2022/12/28 05:14:41;;;;;;;2.65;0.65;;;;;;;7.45;100.00;99808.34;5008678;28;20049;-78
2022/12/28 05:17:09;;;;;;;3.08;1.30;;;;;;;7.50;100.00;99816.19;5012605;28;20049;-78
2022/12/28 05:19:38;;;;;;;2.15;0.50;;;;;;;7.50;100.00;99814.47;5000147;28;20049;-76
2022/12/28 05:22:10;;;;;;;3.22;0.57;;;;;;;7.52;100.00;99814.53;5007479;28;20112;-74
2022/12/28 05:24:39;;;;;;;5.15;0.75;;;;;;;7.51;100.00;99817.91;5018027;28;20053;-75
2022/12/28 05:27:08;;;;;;;7.22;0.95;;;;;;;7.49;100.00;99820.47;5005381;28;20042;-77
2022/12/28 05:29:36;;;;;;;2.97;0.57;;;;;;;7.49;100.00;99829.88;5003050;28;20414;-76
2022/12/28 05:32:07;;;;;;;5.90;0.63;;;;;;;7.46;100.00;99825.50;5001606;28;20133;-79
2022/12/28 05:34:36;;;;;;;3.33;0.68;;;;;;;7.45;100.00;99820.34;5014335;28;20049;-78
2022/12/28 05:37:05;;;;;;;2.90;1.10;;;;;;;7.44;100.00;99831.44;5006472;28;20064;-77
2022/12/28 05:39:34;;;;;;;3.38;0.50;;;;;;;7.42;100.00;99838.25;5007283;28;20049;-81
2022/12/28 05:42:02;;;;;;;3.13;0.60;;;;;;;7.39;100.00;99857.06;5006584;28;20053;-76
2022/12/28 05:44:31;;;;;;;5.22;1.02;;;;;;;7.39;100.00;99862.22;5006039;28;20045;-77
2022/12/28 05:47:00;;;;;;;1.85;0.45;;;;;;;7.36;100.00;99880.16;5003360;28;20052;-76
2022/12/28 05:49:30;;;;;;;4.75;0.80;;;;;;;7.30;100.00;99880.84;5008449;28;20466;-78
2022/12/28 05:51:59;;;;;;;2.47;0.52;;;;;;;7.21;100.00;99880.56;5007054;28;20456;-78
2022/12/28 05:54:27;;;;;;;5.18;0.73;;;;;;;7.22;100.00;99886.63;5002859;28;20831;-76
2022/12/28 05:56:56;;;;;;;2.97;0.63;;;;;;;7.21;100.00;99896.00;5001086;28;20483;-76
2022/12/28 05:59:24;;;;;;;3.05;0.65;;;;;;;7.21;100.00;99906.28;5003653;28;20049;-77
2022/12/28 06:01:53;;;;;;;3.20;0.75;;;;;;;7.19;100.00;99912.22;5007980;28;20050;-77
2022/12/28 06:04:30;;;;;;;8.52;1.02;;;;;;;7.16;100.00;99910.44;5010318;28;20578;-77
2022/12/28 06:06:59;;;;;;;5.45;0.70;;;;;;;7.18;100.00;99906.22;5007361;28;20763;-77
2022/12/28 06:09:28;;;;;;;5.75;0.80;;;;;;;7.19;100.00;99913.09;5000249;28;20050;-79
2022/12/28 06:11:57;;;;;;;2.40;0.80;;;;;;;7.15;100.00;99903.56;5003002;28;20064;-74
2022/12/28 06:14:26;;;;;;;3.30;0.70;;;;;;;7.10;100.00;99918.88;5013084;28;20046;-74
2022/12/28 06:16:54;;;;;;;5.53;1.27;;;;;;;7.13;100.00;99925.78;5012191;28;20069;-74
2022/12/28 06:19:23;;;;;;;5.18;0.95;;;;;;;7.16;100.00;99923.31;5008259;28;20133;-73
2022/12/28 06:21:53;;;;;;;4.20;0.50;;;;;;;7.19;100.00;99932.81;5008841;28;20061;-83
2022/12/28 06:24:22;;;;;;;3.05;0.80;;;;;;;7.22;100.00;99935.50;5008425;28;20041;-74
2022/12/28 06:26:51;;;;;;;4.90;0.73;;;;;;;7.26;100.00;99943.34;5006564;28;20049;-75
2022/12/28 06:29:19;;;;;;;4.53;0.52;;;;;;;7.26;100.00;99943.34;5010748;28;20368;-74
2022/12/28 06:31:50;;;;;;;2.95;0.90;;;;;;;7.26;100.00;99948.50;5011584;28;20042;-75
2022/12/28 06:34:18;;;;;;;3.92;0.60;;;;;;;7.24;100.00;99952.72;5002418;28;20057;-76
2022/12/28 06:36:50;;;;;;;6.50;0.55;;;;;;;7.24;100.00;99962.13;5014363;28;20075;-77
2022/12/28 06:39:20;;;;;;;4.95;0.43;;;;;;;7.19;100.00;99967.13;5010344;28;20104;-74
2022/12/28 06:41:48;;;;;;;3.13;0.63;;;;;;;7.14;100.00;99981.56;5003152;28;20136;-75
2022/12/28 06:44:17;;;;;;;2.50;0.85;;;;;;;7.09;100.00;99994.28;5005012;28;20519;-75
2022/12/28 06:46:45;;;;;;;3.25;0.75;;;;;;;7.12;100.00;99998.63;5006415;28;20058;-75
2022/12/28 06:49:13;;;;;;;5.53;0.50;;;;;;;7.12;100.00;99996.97;5007332;28;20045;-75
2022/12/28 06:51:42;;;;;;;1.42;0.50;;;;;;;7.13;100.00;100000.41;5008949;28;20081;-75
2022/12/28 06:54:11;;;;;;;1.50;0.43;;;;;;;7.13;100.00;100013.25;5003532;28;20141;-76
2022/12/28 06:56:41;;;;;;;3.55;0.70;;;;;;;7.14;100.00;100009.84;5003043;28;20097;-75
2022/12/28 06:59:09;;;;;;;2.75;0.43;;;;;;;7.12;100.00;100014.97;5013058;28;20116;-75
2022/12/28 07:01:39;;;;;;;0.75;0.55;;;;;;;7.11;100.00;100025.19;5006661;28;20096;-74
2022/12/28 07:04:09;;;;;;;2.47;0.57;;;;;;;7.11;100.00;100032.91;5013955;28;20052;-74
2022/12/28 07:06:39;;;;;;;2.40;0.50;;;;;;;7.14;100.00;100043.28;5009245;28;20065;-73
2022/12/28 07:09:09;;;;;;;1.08;0.55;;;;;;;7.14;100.00;100044.16;5008769;28;20049;-76
2022/12/28 07:11:40;;;;;;;3.13;0.47;;;;;;;7.14;100.00;100048.44;4997638;28;20137;-75
2022/12/28 07:14:08;;;;;;;0.70;0.35;;;;;;;7.14;100.00;100051.00;5011554;28;20077;-75
2022/12/28 07:16:37;;;;;;;1.67;0.30;;;;;;;7.12;100.00;100061.28;5003262;28;20053;-74
2022/12/28 07:19:05;;;;;;;5.63;0.52;;;;;;;7.10;100.00;100062.03;5007524;28;20077;-75
2022/12/28 07:21:35;;;;;;;2.70;0.50;;;;;;;7.09;100.00;100075.72;5012491;28;20134;-76
2022/12/28 07:24:05;;;;;;;4.15;1.08;;;;;;;7.09;100.00;100071.44;5005720;28;20196;-75
2022/12/28 07:26:36;;;;;;;7.57;0.60;;;;;;;7.10;100.00;100068.06;5014848;28;20050;-74
2022/12/28 07:29:07;;;;;;;9.40;1.08;;;;;;;7.11;100.00;100061.22;5012961;28;20096;-75
2022/12/28 07:31:38;;;;;;;2.80;0.40;;;;;;;7.10;100.00;100059.44;5012639;28;20116;-74
2022/12/28 07:34:07;;;;;;;3.75;0.65;;;;;;;7.12;100.00;100073.25;5014308;28;20496;-73
2022/12/28 07:36:35;;;;;;;3.65;0.60;;;;;;;7.13;100.00;100062.16;5006692;28;20053;-74
2022/12/28 07:39:04;;;;;;;1.83;0.77;;;;;;;7.14;100.00;100069.03;5006622;28;20165;-73
2022/12/28 07:41:34;;;;;;;3.25;0.85;;;;;;;7.15;100.00;100065.66;5008509;28;20049;-75
2022/12/28 07:44:05;;;;;;;3.42;1.83;;;;;;;7.06;100.00;100060.19;5009533;28;20052;-73
2022/12/28 07:46:35;;;;;;;6.18;1.25;;;;;;;7.11;100.00;100074.09;5004628;28;20057;-75
2022/12/28 07:49:03;;;;;;;3.90;0.93;;;;;;;7.06;100.00;100081.66;5014582;28;20130;-73
2022/12/28 07:51:33;;;;;;;5.65;1.42;;;;;;;7.06;100.00;100091.06;5011570;28;20050;-75
2022/12/28 07:54:02;;;;;;;5.03;0.98;;;;;;;7.06;100.00;100091.06;5006861;28;20050;-74
2022/12/28 07:56:32;;;;;;;5.30;0.93;;;;;;;7.03;100.00;100096.09;5007464;28;20056;-74
2022/12/28 07:59:02;;;;;;;2.38;0.82;;;;;;;7.01;100.00;100092.59;5018170;28;20076;-74
2022/12/28 08:01:34;;;;;;;5.15;0.82;;;;;;;7.01;100.00;100092.59;5004441;28;20056;-74
2022/12/28 08:04:04;;;;;;;6.22;1.02;;;;;;;6.99;100.00;100092.56;5006254;28;20061;-76
2022/12/28 08:06:36;;;;;;;7.05;0.65;;;;;;;6.99;100.00;100091.69;5010041;28;20176;-75
2022/12/28 08:09:05;;;;;;;3.40;1.10;;;;;;;6.99;100.00;100096.84;5016344;28;20511;-74
2022/12/28 08:11:36;;;;;;;1.67;0.60;;;;;;;6.99;100.00;100095.13;5005723;28;20081;-74
2022/12/28 08:14:06;;;;;;;5.32;1.25;;;;;;;6.95;100.00;100102.69;4999028;28;20050;-74
2022/12/28 08:16:38;;;;;;;5.32;0.95;;;;;;;6.98;100.00;100108.81;5010754;28;20144;-74
2022/12/28 08:19:08;;;;;;;1.85;0.82;;;;;;;6.97;100.00;100112.22;5011468;28;20571;-75
2022/12/28 08:21:38;;;;;;;6.35;1.42;;;;;;;6.93;100.00;100120.63;5014340;28;20054;-75
2022/12/28 08:24:10;;;;;;;2.67;0.50;;;;;;;6.93;100.00;100126.66;4999920;28;20089;-74
2022/12/28 08:26:41;;;;;;;4.80;0.70;;;;;;;6.91;100.00;100130.88;5017341;28;20054;-74
2022/12/28 08:29:11;;;;;;;5.28;0.80;;;;;;;6.90;100.00;100136.84;5006066;28;20082;-74
2022/12/28 08:31:43;;;;;;;7.22;0.70;;;;;;;6.90;100.00;100143.69;5010359;28;20148;-74
2022/12/28 08:34:14;;;;;;;5.80;1.08;;;;;;;6.90;100.00;100152.28;5007427;28;20126;-75
2022/12/28 08:36:43;;;;;;;2.78;0.68;;;;;;;6.86;100.00;100142.69;5015506;28;20133;-74
2022/12/28 08:39:11;;;;;;;4.10;0.90;;;;;;;6.86;100.00;100150.41;5003065;28;20046;-74
2022/12/28 08:41:39;;;;;;;10.38;1.30;;;;;;;6.87;100.00;100151.28;5006055;28;20103;-73
2022/12/28 08:44:08;;;;;;;2.78;0.50;;;;;;;6.83;100.00;100158.03;5001503;28;20138;-74
2022/12/28 08:46:39;;;;;;;4.55;0.93;;;;;;;6.81;100.00;100151.09;5008360;28;20086;-74
2022/12/28 08:49:09;;;;;;;7.03;0.95;;;;;;;6.79;100.00;100151.03;5008103;28;20506;-73
2022/12/28 08:51:40;;;;;;;4.68;0.98;;;;;;;6.78;100.00;100154.44;5013498;28;20069;-74
2022/12/28 08:54:10;;;;;;;6.40;1.17;;;;;;;6.79;100.00;100153.59;5010649;28;20050;-75
2022/12/28 08:56:40;;;;;;;3.63;0.47;;;;;;;6.78;100.00;100158.69;5013055;28;20076;-73
2022/12/28 08:59:08;;;;;;;1.42;0.57;;;;;;;6.70;100.00;100140.41;5011707;28;20084;-74
2022/12/28 09:01:38;;;;;;;2.72;0.60;;;;;;;6.63;100.00;100147.03;5008193;28;20089;-75
2022/12/28 09:04:12;;;;;;;2.10;0.40;;;;;;;6.70;100.00;100159.28;5018345;28;20796;-74
2022/12/28 09:06:40;;;;;;;1.02;0.45;;;;;;;6.68;100.00;100175.47;5006134;28;20563;-75
2022/12/28 09:09:12;;;;;;;2.50;0.55;;;;;;;6.66;100.00;100172.84;5008656;28;20144;-74
2022/12/28 09:11:41;;;;;;;3.13;0.63;;;;;;;6.64;100.00;100181.31;5014909;28;20159;-75
2022/12/28 09:14:11;;;;;;;3.75;0.85;;;;;;;6.65;100.00;100180.53;5010110;28;20125;-75
2022/12/28 09:16:40;;;;;;;1.95;0.30;;;;;;;6.63;100.00;100187.31;5009198;28;20132;-74
2022/12/28 09:19:14;;;;;;;4.22;0.50;;;;;;;6.64;100.00;100184.78;5007895;28;20049;-75
2022/12/28 09:21:44;;;;;;;1.88;0.40;;;;;;;6.63;100.00;100182.16;5011050;28;20137;-75
2022/12/28 09:24:14;;;;;;;1.90;0.28;;;;;;;6.60;100.00;100192.34;5015890;28;20108;-74
2022/12/28 09:26:42;;;;;;;1.02;0.20;;;;;;;6.61;100.00;100194.09;5009169;28;20193;-75
2022/12/28 09:29:14;;;;;;;1.10;0.28;;;;;;;6.60;100.00;100198.34;5005301;28;20054;-74
2022/12/28 09:31:43;;;;;;;1.75;0.30;;;;;;;6.57;100.00;100197.34;5016319;28;20138;-75
2022/12/28 09:34:14;;;;;;;1.55;0.43;;;;;;;6.54;100.00;100207.53;5011254;28;20057;-75
2022/12/28 09:36:43;;;;;;;0.52;0.45;;;;;;;6.53;100.00;100214.38;5014464;28;20077;-75
2022/12/28 09:39:15;;;;;;;5.53;0.57;;;;;;;6.54;100.00;100207.53;5008114;28;20141;-74
2022/12/28 09:41:49;;;;;;;5.93;0.60;;;;;;;6.53;100.00;100206.66;5004808;28;20172;-75
2022/12/28 09:44:40;;;;;;;0.93;0.13;;;;;;;6.53;100.00;100227.22;5008409;28;20100;-75
2022/12/28 09:47:19;;;;;;;4.10;0.57;;;;;;;6.49;100.00;100236.50;4995503;28;20057;-74
2022/12/28 09:50:03;;;;;;;1.90;0.50;;;;;;;6.49;100.00;100221.09;4981428;28;20074;-75
2022/12/28 09:52:34;;;;;;;4.75;0.55;;;;;;;6.45;100.00;100234.63;4991811;28;20051;-74
2022/12/28 09:55:11;;;;;;;4.32;0.60;;;;;;;6.44;100.00;100232.91;4984751;28;20070;-74
2022/12/28 09:57:44;;;;;;;1.80;0.73;;;;;;;6.42;100.00;100237.09;4987140;28;20144;-73
2022/12/28 10:00:19;;;;;;;2.58;0.38;;;;;;;6.41;100.00;100240.47;4989522;28;20154;-73
2022/12/28 10:02:51;;;;;;;1.40;0.57;;;;;;;6.43;100.00;100246.53;4988431;28;20046;-74
2022/12/28 10:05:23;;;;;;;4.40;0.35;;;;;;;6.44;100.00;100253.44;4988969;28;20121;-73
2022/12/28 10:07:53;;;;;;;1.20;0.43;;;;;;;6.43;100.00;100256.81;4981711;28;20050;-74
2022/12/28 10:10:24;;;;;;;2.42;0.68;;;;;;;6.43;100.00;100251.69;4990160;28;20074;-75
2022/12/28 10:12:52;;;;;;;4.03;0.40;;;;;;;6.48;100.00;100259.56;4990072;28;20149;-74
2022/12/28 10:15:25;;;;;;;1.15;0.68;;;;;;;6.50;100.00;100257.94;4990744;28;20130;-74
2022/12/28 10:17:53;;;;;;;;;;;;;;;6.51;100.00;100241.72;4979917;28;20047;-74
2022/12/28 10:20:23;;;;;;;3.75;0.70;;;;;;;6.53;100.00;100250.34;4991870;28;19980;-75
2022/12/28 10:22:53;;;;;;;2.83;0.47;;;;;;;6.52;100.00;100253.72;4987674;28;20101;-74
2022/12/28 10:25:24;;;;;;;1.27;0.55;;;;;;;6.54;100.00;100258.94;4990430;28;20066;-75
2022/12/28 10:27:53;;;;;;;4.28;1.33;;;;;;;6.55;100.00;100265.81;4990409;28;20145;-74
2022/12/28 10:30:25;;;;;;;2.55;0.43;;;;;;;6.55;100.00;100270.97;4991628;28;20047;-75
2022/12/28 10:32:56;;;;;;;2.72;0.70;;;;;;;6.52;100.00;100279.44;4989233;28;20050;-75
2022/12/28 10:35:29;;;;;;;2.20;0.60;;;;;;;6.52;100.00;100276.88;4976266;28;20086;-75
2022/12/28 10:38:03;;;;;;;5.93;0.65;;;;;;;6.55;100.00;100286.38;4992437;28;20156;-75
2022/12/28 10:40:34;;;;;;;1.73;0.30;;;;;;;6.53;100.00;100285.44;4981761;28;20058;-73
2022/12/28 10:43:03;;;;;;;2.53;0.60;;;;;;;6.49;100.00;100294.75;4987273;28;20085;-73
2022/12/28 10:45:37;;;;;;;5.82;0.93;;;;;;;6.43;100.00;100282.53;4987374;28;20078;-74
2022/12/28 10:48:11;;;;;;;4.15;0.68;;;;;;;6.48;100.00;100285.28;4988651;28;20109;-75
2022/12/28 10:50:50;;;;;;;1.70;0.40;;;;;;;6.49;100.00;100298.19;4985367;28;20133;-73
2022/12/28 10:53:24;;;;;;;2.17;0.52;;;;;;;6.52;100.00;100301.69;4985560;28;20057;-75
2022/12/28 10:56:03;;;;;;;1.73;0.57;;;;;;;6.49;100.00;100287.03;4989468;28;20046;-75
2022/12/28 10:58:31;;;;;;;6.80;0.75;;;;;;;6.48;100.00;100299.03;4990182;28;20086;-74
2022/12/28 11:01:02;;;;;;;6.10;0.85;;;;;;;6.44;100.00;100302.28;4986079;28;20524;-73
2022/12/28 11:03:34;;;;;;;3.20;0.38;;;;;;;6.45;100.00;100310.84;4988826;28;20082;-74
2022/12/28 11:06:16;;;;;;;3.50;0.63;;;;;;;6.41;100.00;100312.41;4987642;28;20334;-74
2022/12/28 11:08:46;;;;;;;1.20;0.52;;;;;;;6.40;100.00;100315.81;4988823;28;20037;-73
2022/12/28 11:11:22;;;;;;;3.65;0.32;;;;;;;6.37;100.00;100315.72;4987496;28;20125;-74
2022/12/28 11:13:56;;;;;;;0.60;0.40;;;;;;;6.35;100.00;100316.47;4990899;28;20046;-74
2022/12/28 11:16:24;;;;;;;3.33;0.45;;;;;;;6.32;100.00;100319.78;4985382;28;20085;-74
2022/12/28 11:18:53;;;;;;;0.80;0.65;;;;;;;6.31;100.00;100333.44;4983755;28;20559;-74
2022/12/28 11:21:23;;;;;;;2.47;0.50;;;;;;;6.33;100.00;100339.53;4985446;28;20088;-75
2022/12/28 11:23:53;;;;;;;3.55;0.63;;;;;;;6.34;100.00;100338.69;4993893;28;20579;-72
2022/12/28 11:26:22;;;;;;;3.70;0.60;;;;;;;6.31;100.00;100332.56;4983724;28;20070;-75
2022/12/28 11:28:53;;;;;;;0.43;0.30;;;;;;;6.26;100.00;100332.41;4988200;28;20137;-75
2022/12/28 11:31:28;;;;;;;1.73;0.57;;;;;;;6.29;100.00;100345.34;4989522;28;20053;-75
2022/12/28 11:33:59;;;;;;;1.65;0.47;;;;;;;6.31;100.00;100354.00;4985355;28;20046;-75
2022/12/28 11:36:29;;;;;;;1.95;0.47;;;;;;;6.35;100.00;100355.88;4982673;28;20050;-75
2022/12/28 11:38:58;;;;;;;2.35;0.40;;;;;;;6.38;100.00;100366.28;4982635;28;20062;-74
2022/12/28 11:41:49;;;;;;;3.85;0.55;;;;;;;6.38;100.00;100371.41;4987048;28;20129;-74
2022/12/28 11:44:45;;;;;;;1.67;0.68;;;;;;;6.34;100.00;100369.53;4981724;28;20039;-74
2022/12/28 11:47:24;;;;;;;3.50;0.55;;;;;;;6.31;100.00;100361.72;4991233;28;20056;-73
2022/12/28 11:49:53;;;;;;;1.45;0.40;;;;;;;6.31;100.00;100364.28;5008798;28;20052;-74
2022/12/28 11:52:50;;;;;;;0.28;0.10;;;;;;;6.31;100.00;100368.56;5007018;28;20046;-74
2022/12/28 11:55:51;;;;;;;5.32;1.17;;;;;;;6.31;100.00;100369.41;4996052;28;20065;-75
2022/12/28 11:58:54;;;;;;;2.17;0.68;;;;;;;6.33;100.00;100361.78;5003589;28;20046;-74
2022/12/28 12:01:43;;;;;;;3.95;0.68;;;;;;;6.32;100.00;100363.44;4981616;28;20444;-75
2022/12/28 12:04:28;;;;;;;0.57;0.22;;;;;;;6.33;100.00;100362.66;5002957;28;20133;-74
2022/12/28 12:07:28;;;;;;;1.25;0.30;;;;;;;6.35;100.00;100355.88;4995093;28;20495;-75
2022/12/28 12:10:30;;;;;;;4.47;0.80;;;;;;;6.31;100.00;100363.41;5001488;28;20145;-75
2022/12/28 12:12:59;;;;;;;0.50;0.30;;;;;;;6.27;100.00;100368.41;5008032;28;20115;-75
2022/12/28 12:15:34;;;;;;;1.52;0.35;;;;;;;6.28;100.00;100374.44;5008233;28;20085;-75